Terminal Aerodrome Forecast
Issued by NWS

Home | Current Version | Previous Version | Text Only | Print | Product List | Glossary On
Versions: 1 2 3 4 5 6 7 8 9 10 11 12 13 14 15 16
000
FTUS45 KFGZ 252300
TAFGCN
TAF
KGCN 252328Z 2600/2624 29010KT P6SM SCT040 BKN060
      TEMPO 2600/2602 3SM -SHSN FEW018 BKN025
     FM260200 28005KT P6SM SCT040
     FM261200 VRB03KT P6SM FEW040
     FM261800 22008KT P6SM SCT040=

USA.gov is the U.S. government's official web portal to all federal, state and local government web resources and services.